createdAt,value
2022-11-08T00:01:34.859Z,101294.84
2022-11-08T00:04:09.961Z,101293.88
2022-11-08T00:07:00.732Z,101290.97
2022-11-08T00:09:50.870Z,101292.52
2022-11-08T00:12:40.394Z,101292.96
2022-11-08T00:15:13.765Z,101292.98
2022-11-08T00:17:45.975Z,101293.73
2022-11-08T00:20:18.332Z,101293.84
2022-11-08T00:22:50.581Z,101297.71
2022-11-08T00:25:22.880Z,101296.87
2022-11-08T00:27:55.229Z,101296.61
2022-11-08T00:30:27.608Z,101301.06
2022-11-08T00:32:59.845Z,101295.36
2022-11-08T00:35:32.307Z,101290.13
2022-11-08T00:38:05.170Z,101292.89
2022-11-08T00:40:37.578Z,101292.89
2022-11-08T00:43:09.822Z,101290.48
2022-11-08T00:45:42.723Z,101291.06
2022-11-08T00:48:15.140Z,101288.41
2022-11-08T00:50:47.632Z,101286.59
2022-11-08T00:53:19.987Z,101285.58
2022-11-08T00:55:59.360Z,101282.77
2022-11-08T00:58:31.840Z,101284.77
2022-11-08T01:01:09.506Z,101286.79
2022-11-08T01:03:42.061Z,101284.85
2022-11-08T01:06:16.838Z,101280.47
2022-11-08T01:08:49.979Z,101282.26
2022-11-08T01:11:24.937Z,101277.59
2022-11-08T01:14:00.594Z,101282.76
2022-11-08T01:16:35.015Z,101282.58
2022-11-08T01:19:07.329Z,101281.94
2022-11-08T01:21:39.876Z,101280.48
2022-11-08T01:24:12.318Z,101279.12
2022-11-08T01:26:44.558Z,101276.89
2022-11-08T01:29:16.870Z,101278.80
2022-11-08T01:31:49.106Z,101283.23
2022-11-08T01:34:21.580Z,101278.02
2022-11-08T01:36:53.798Z,101280.42
2022-11-08T01:39:26.021Z,101278.20
2022-11-08T01:41:58.247Z,101277.59
2022-11-08T01:44:30.469Z,101273.40
2022-11-08T01:47:02.676Z,101274.87
2022-11-08T01:49:46.011Z,101274.80
2022-11-08T01:52:30.667Z,101272.64
2022-11-08T01:55:15.234Z,101266.70
2022-11-08T01:57:52.931Z,101266.59
2022-11-08T02:00:25.601Z,101262.27
2022-11-08T02:03:01.153Z,101262.69
2022-11-08T02:05:35.007Z,101263.54
2022-11-08T02:08:15.969Z,101264.55
2022-11-08T02:10:52.705Z,101268.08
2022-11-08T02:13:28.694Z,101269.32
2022-11-08T02:16:01.325Z,101264.91
2022-11-08T02:18:34.884Z,101265.49
2022-11-08T02:21:13.359Z,101268.59
2022-11-08T02:23:49.770Z,101273.14
2022-11-08T02:26:24.944Z,101273.08
2022-11-08T02:28:57.372Z,101272.47
2022-11-08T02:31:29.745Z,101275.27
2022-11-08T02:34:01.947Z,101270.73
2022-11-08T02:36:34.176Z,101271.02
2022-11-08T02:39:06.391Z,101268.09
2022-11-08T02:41:38.566Z,101271.94
2022-11-08T02:44:10.919Z,101275.39
2022-11-08T02:46:43.151Z,101265.98
2022-11-08T02:49:15.595Z,101271.42
2022-11-08T02:51:47.994Z,101270.17
2022-11-08T02:54:20.267Z,101268.09
2022-11-08T02:56:52.483Z,101270.73
2022-11-08T02:59:24.973Z,101270.43
2022-11-08T03:01:57.510Z,101278.95
2022-11-08T03:04:29.961Z,101279.45
2022-11-08T03:07:02.249Z,101278.50
2022-11-08T03:09:34.464Z,101277.77
2022-11-08T03:12:07.128Z,101282.35
2022-11-08T03:14:39.486Z,101283.23
2022-11-08T03:17:11.723Z,101284.98
2022-11-08T03:19:43.958Z,101284.36
2022-11-08T03:22:16.311Z,101284.98
2022-11-08T03:24:48.532Z,101282.00
2022-11-08T03:27:21.164Z,101283.96
2022-11-08T03:29:53.413Z,101281.04
2022-11-08T03:32:25.642Z,101281.98
2022-11-08T03:34:59.754Z,101277.09
2022-11-08T03:37:32.138Z,101279.09
2022-11-08T03:40:05.358Z,101280.41
2022-11-08T03:42:37.595Z,101280.91
2022-11-08T03:45:11.326Z,101278.73
2022-11-08T03:47:46.423Z,101277.09
2022-11-08T03:50:19.490Z,101275.05
2022-11-08T03:52:53.394Z,101275.66
2022-11-08T03:55:27.887Z,101270.48
2022-11-08T03:58:00.281Z,101272.50
2022-11-08T04:00:32.916Z,101271.70
2022-11-08T04:03:06.079Z,101271.95
2022-11-08T04:05:38.341Z,101271.59
2022-11-08T04:08:10.674Z,101271.98
2022-11-08T04:10:43.007Z,101271.81
2022-11-08T04:13:32.487Z,101268.79
2022-11-08T04:16:04.871Z,101271.45
2022-11-08T04:18:54.628Z,101269.54
2022-11-08T04:21:26.834Z,101271.79
2022-11-08T04:23:59.723Z,101268.48
2022-11-08T04:26:31.947Z,101265.85
2022-11-08T04:29:05.548Z,101265.52
2022-11-08T04:31:38.359Z,101261.33
2022-11-08T04:34:10.611Z,101257.88
2022-11-08T04:36:42.815Z,101256.86
2022-11-08T04:39:15.128Z,101261.26
2022-11-08T04:41:47.491Z,101260.77
2022-11-08T04:44:19.897Z,101262.11
2022-11-08T04:46:52.262Z,101267.55
2022-11-08T04:49:24.573Z,101265.75
2022-11-08T04:51:56.925Z,101266.96
2022-11-08T04:54:29.244Z,101268.11
2022-11-08T04:57:03.084Z,101267.52
2022-11-08T04:59:35.385Z,101270.23
2022-11-08T05:02:08.134Z,101273.29
2022-11-08T05:04:40.643Z,101272.83
2022-11-08T05:07:12.974Z,101275.02
2022-11-08T05:09:45.211Z,101273.95
2022-11-08T05:12:17.559Z,101272.70
2022-11-08T05:14:49.803Z,101272.15
2022-11-08T05:17:21.992Z,101273.48
2022-11-08T05:20:11.719Z,101276.80
2022-11-08T05:23:01.540Z,101275.05
2022-11-08T05:25:33.780Z,101274.88
2022-11-08T05:28:06.304Z,101273.21
2022-11-08T05:30:38.673Z,101273.83
2022-11-08T05:33:13.668Z,101276.16
2022-11-08T05:35:45.887Z,101274.35
2022-11-08T05:38:18.544Z,101277.02
2022-11-08T05:40:51.062Z,101282.09
2022-11-08T05:43:23.764Z,101283.45
2022-11-08T05:45:56.061Z,101287.69
2022-11-08T05:48:28.302Z,101287.58
2022-11-08T05:51:00.779Z,101288.10
2022-11-08T05:53:33.348Z,101294.30
2022-11-08T05:56:06.710Z,101294.80
2022-11-08T05:58:39.852Z,101294.55
2022-11-08T06:01:15.163Z,101297.71
2022-11-08T06:03:48.694Z,101303.77
2022-11-08T06:06:22.794Z,101306.61
2022-11-08T06:08:55.073Z,101305.38
2022-11-08T06:11:28.854Z,101307.27
2022-11-08T06:14:01.190Z,101305.32
2022-11-08T06:16:33.478Z,101306.09
2022-11-08T06:19:05.811Z,101303.86
2022-11-08T06:21:38.050Z,101305.41
2022-11-08T06:24:11.262Z,101305.94
2022-11-08T06:26:43.474Z,101301.10
2022-11-08T06:29:16.039Z,101308.84
2022-11-08T06:31:48.306Z,101310.57
2022-11-08T06:34:20.935Z,101313.02
2022-11-08T06:36:55.151Z,101315.67
2022-11-08T06:39:27.497Z,101311.60
2022-11-08T06:41:59.885Z,101314.82
2022-11-08T06:44:32.170Z,101316.23
2022-11-08T06:47:04.831Z,101315.23
2022-11-08T06:49:37.951Z,101315.66
2022-11-08T06:52:10.210Z,101313.32
2022-11-08T06:54:42.478Z,101314.52
2022-11-08T06:57:14.891Z,101314.06
2022-11-08T06:59:47.116Z,101308.33
2022-11-08T07:02:19.619Z,101310.02
2022-11-08T07:04:51.911Z,101313.05
2022-11-08T07:07:24.302Z,101312.71
2022-11-08T07:10:00.793Z,101312.56
2022-11-08T07:12:35.043Z,101312.79
2022-11-08T07:15:08.312Z,101312.42
2022-11-08T07:17:40.694Z,101315.58
2022-11-08T07:20:14.655Z,101313.20
2022-11-08T07:22:46.852Z,101312.21
2022-11-08T07:25:19.240Z,101310.90
2022-11-08T07:27:51.640Z,101313.30
2022-11-08T07:30:24.293Z,101317.23
2022-11-08T07:32:58.387Z,101321.64
2022-11-08T07:35:30.729Z,101325.68
2022-11-08T07:38:03.148Z,101328.61
2022-11-08T07:40:36.651Z,101328.63
2022-11-08T07:43:13.120Z,101323.75
2022-11-08T07:45:45.921Z,101327.10
2022-11-08T07:48:18.158Z,101332.27
2022-11-08T07:50:50.438Z,101329.29
2022-11-08T07:53:23.330Z,101329.31
2022-11-08T07:55:55.625Z,101328.16
2022-11-08T07:58:28.005Z,101331.99
2022-11-08T08:01:03.929Z,101331.39
2022-11-08T08:03:36.190Z,101331.89
2022-11-08T08:06:08.728Z,101327.79
2022-11-08T08:08:41.049Z,101330.85
2022-11-08T08:11:14.544Z,101329.45
2022-11-08T08:13:46.797Z,101324.83
2022-11-08T08:16:19.118Z,101321.81
2022-11-08T08:18:56.161Z,101329.94
2022-11-08T08:21:29.195Z,101332.38
2022-11-08T08:24:01.530Z,101333.90
2022-11-08T08:26:34.050Z,101333.27
2022-11-08T08:29:06.380Z,101336.63
2022-11-08T08:31:38.883Z,101332.88
2022-11-08T08:34:11.200Z,101331.52
2022-11-08T08:36:43.391Z,101335.05
2022-11-08T08:39:15.922Z,101336.45
2022-11-08T08:41:48.395Z,101337.78
2022-11-08T08:44:20.817Z,101341.59
2022-11-08T08:46:53.122Z,101340.96
2022-11-08T08:49:25.475Z,101341.48
2022-11-08T08:51:58.398Z,101337.58
2022-11-08T08:54:30.704Z,101333.17
2022-11-08T08:57:03.075Z,101334.08
2022-11-08T09:02:27.521Z,101332.73
2022-11-08T09:05:00.383Z,101333.61
2022-11-08T09:07:32.664Z,101330.73
2022-11-08T09:10:05.503Z,101330.53
2022-11-08T09:12:38.132Z,101334.02
2022-11-08T09:15:11.495Z,101330.44
2022-11-08T09:17:43.910Z,101329.96
2022-11-08T09:20:17.250Z,101332.14
2022-11-08T09:22:49.691Z,101326.45
2022-11-08T09:25:22.047Z,101328.45
2022-11-08T09:27:57.000Z,101329.27
2022-11-08T09:30:29.274Z,101324.38
2022-11-08T09:33:02.522Z,101323.16
2022-11-08T09:35:34.966Z,101321.95
2022-11-08T09:38:07.575Z,101323.58
2022-11-08T09:40:50.933Z,101317.39
2022-11-08T09:43:42.078Z,101322.55
2022-11-08T09:46:21.651Z,101321.05
2022-11-08T09:48:56.319Z,101322.30
2022-11-08T09:51:30.049Z,101317.55
2022-11-08T09:54:04.314Z,101320.14
2022-11-08T09:56:39.405Z,101318.74
2022-11-08T09:59:32.166Z,101315.25
2022-11-08T10:02:04.716Z,101314.80
2022-11-08T10:04:39.301Z,101313.95
2022-11-08T10:07:30.367Z,101313.94
2022-11-08T10:10:19.106Z,101313.40
2022-11-08T10:13:00.604Z,101309.42
2022-11-08T10:15:41.492Z,101310.93
2022-11-08T10:18:35.913Z,101308.14
2022-11-08T10:21:16.172Z,101312.13
2022-11-08T10:23:54.484Z,101304.92
2022-11-08T10:26:34.893Z,101306.34
2022-11-08T10:29:17.623Z,101305.95
2022-11-08T10:31:53.976Z,101304.38
2022-11-08T10:34:30.088Z,101309.08
2022-11-08T10:37:07.755Z,101311.41
2022-11-08T10:39:44.894Z,101307.44
2022-11-08T10:42:22.222Z,101308.66
2022-11-08T10:44:55.202Z,101310.16
2022-11-08T10:47:30.726Z,101311.02
2022-11-08T10:50:08.030Z,101308.71
2022-11-08T10:52:46.100Z,101309.77
2022-11-08T10:55:31.017Z,101303.20
2022-11-08T10:58:03.687Z,101302.23
2022-11-08T11:00:36.821Z,101302.23
2022-11-08T11:03:29.074Z,101301.98
2022-11-08T11:06:04.830Z,101302.00
2022-11-08T11:08:49.101Z,101300.02
2022-11-08T11:11:36.838Z,101302.49
2022-11-08T11:14:16.488Z,101299.21
2022-11-08T11:17:06.270Z,101301.77
2022-11-08T11:19:38.755Z,101300.22
2022-11-08T11:22:12.438Z,101299.61
2022-11-08T11:24:54.886Z,101300.41
2022-11-08T11:27:31.360Z,101298.00
2022-11-08T11:30:26.122Z,101297.33
2022-11-08T11:33:08.077Z,101292.13
2022-11-08T11:35:48.112Z,101289.31
2022-11-08T11:38:29.962Z,101286.06
2022-11-08T11:41:11.070Z,101287.41
2022-11-08T11:43:49.342Z,101284.35
2022-11-08T11:46:26.499Z,101283.77
2022-11-08T11:49:03.745Z,101284.58
2022-11-08T11:51:36.029Z,101279.89
2022-11-08T11:54:14.789Z,101282.58
2022-11-08T11:56:56.511Z,101286.16
2022-11-08T11:59:53.245Z,101286.27
2022-11-08T12:03:04.124Z,101285.05
2022-11-08T12:05:58.398Z,101285.90
2022-11-08T12:08:45.239Z,101284.63
2022-11-08T12:11:33.368Z,101285.23
2022-11-08T12:14:20.188Z,101283.30
2022-11-08T12:17:05.041Z,101285.63
2022-11-08T12:19:49.775Z,101281.50
2022-11-08T12:22:39.967Z,101282.81
2022-11-08T12:25:20.551Z,101281.27
2022-11-08T12:27:58.279Z,101283.25
2022-11-08T12:30:45.569Z,101285.47
2022-11-08T12:33:30.736Z,101285.63
2022-11-08T12:36:13.093Z,101286.50
2022-11-08T12:39:06.528Z,101285.40
2022-11-08T12:41:53.676Z,101282.61
2022-11-08T12:44:48.478Z,101283.83
2022-11-08T12:47:31.863Z,101282.89
2022-11-08T12:50:26.162Z,101285.20
2022-11-08T12:53:20.549Z,101282.77
2022-11-08T12:55:57.235Z,101284.62
2022-11-08T12:58:37.123Z,101284.89
2022-11-08T13:01:14.292Z,101285.09
2022-11-08T13:04:07.349Z,101290.05
2022-11-08T13:06:47.556Z,101290.13
2022-11-08T13:09:34.217Z,101288.04
2022-11-08T13:12:14.555Z,101289.18
2022-11-08T13:14:47.026Z,101291.27
2022-11-08T13:17:26.367Z,101290.65
2022-11-08T13:20:05.994Z,101293.34
2022-11-08T13:23:02.601Z,101290.13
2022-11-08T13:25:37.358Z,101290.86
2022-11-08T13:28:38.264Z,101293.52
2022-11-08T13:31:21.947Z,101291.12
2022-11-08T13:34:18.439Z,101294.09
2022-11-08T13:36:55.511Z,101298.63
2022-11-08T13:40:04.722Z,101301.32
2022-11-08T13:43:00.292Z,101305.27
2022-11-08T13:45:35.293Z,101301.34
2022-11-08T13:48:34.406Z,101301.45
2022-11-08T13:51:27.237Z,101303.52
2022-11-08T13:54:28.584Z,101300.60
2022-11-08T13:57:02.044Z,101299.90
2022-11-08T13:59:59.610Z,101296.98
2022-11-08T14:02:44.775Z,101291.52
2022-11-08T14:05:42.827Z,101293.62
2022-11-08T14:08:24.278Z,101294.08
2022-11-08T14:11:36.814Z,101291.63
2022-11-08T14:14:35.399Z,101292.82
2022-11-08T14:17:32.250Z,101295.06
2022-11-08T14:20:24.419Z,101296.95
2022-11-08T14:22:57.325Z,101294.99
2022-11-08T14:25:36.385Z,101293.82
2022-11-08T14:28:21.920Z,101295.34
2022-11-08T14:30:54.420Z,101298.45
2022-11-08T14:33:27.773Z,101296.74
2022-11-08T14:36:02.539Z,101299.25
2022-11-08T14:38:38.451Z,101300.23
2022-11-08T14:41:15.617Z,101300.34
2022-11-08T14:43:49.246Z,101300.83
2022-11-08T14:46:29.721Z,101299.77
2022-11-08T14:49:11.467Z,101303.18
2022-11-08T14:51:44.714Z,101305.24
2022-11-08T14:54:21.948Z,101312.98
2022-11-08T14:56:56.010Z,101311.14
2022-11-08T14:59:28.176Z,101313.45
2022-11-08T15:02:01.423Z,101319.27
2022-11-08T15:04:33.608Z,101318.94
2022-11-08T15:07:10.252Z,101319.76
2022-11-08T15:09:42.597Z,101319.42
2022-11-08T15:12:19.220Z,101321.63
2022-11-08T15:14:57.665Z,101314.05
2022-11-08T15:17:35.334Z,101321.02
2022-11-08T15:20:21.523Z,101317.05
2022-11-08T15:22:56.687Z,101316.91
2022-11-08T15:25:34.734Z,101324.46
2022-11-08T15:28:22.325Z,101328.23
2022-11-08T15:30:58.250Z,101332.07
2022-11-08T15:33:36.165Z,101334.97
2022-11-08T15:36:16.850Z,101337.55
2022-11-08T15:38:52.225Z,101335.14
2022-11-08T15:41:35.190Z,101337.40
2022-11-08T15:44:17.101Z,101346.36
2022-11-08T15:46:50.038Z,101348.29
2022-11-08T15:49:24.135Z,101350.38
2022-11-08T15:51:58.753Z,101350.37
2022-11-08T15:54:31.254Z,101349.58
2022-11-08T15:57:03.517Z,101349.39
2022-11-08T15:59:37.718Z,101347.66
2022-11-08T16:02:15.972Z,101350.23
2022-11-08T16:04:48.141Z,101350.28
2022-11-08T16:07:20.511Z,101353.08
2022-11-08T16:09:52.816Z,101353.20
2022-11-08T16:12:25.064Z,101357.21
2022-11-08T16:14:58.079Z,101358.95
2022-11-08T16:17:30.508Z,101360.11
2022-11-08T16:20:02.787Z,101362.09
2022-11-08T16:22:35.024Z,101364.29
2022-11-08T16:25:08.284Z,101366.63
2022-11-08T16:27:40.508Z,101367.91
2022-11-08T16:30:18.754Z,101371.56
2022-11-08T16:32:51.517Z,101375.45
2022-11-08T16:35:23.892Z,101375.48
2022-11-08T16:37:56.151Z,101381.05
2022-11-08T16:40:28.649Z,101377.27
2022-11-08T16:43:00.847Z,101380.34
2022-11-08T16:46:03.337Z,101379.84
2022-11-08T16:48:29.648Z,101388.67
2022-11-08T16:51:05.180Z,101390.34
2022-11-08T16:53:38.092Z,101394.77
2022-11-08T16:56:10.598Z,101393.06
2022-11-08T16:58:43.158Z,101395.52
2022-11-08T17:01:21.038Z,101399.98
2022-11-08T17:03:53.418Z,101398.48
2022-11-08T17:06:25.724Z,101400.77
2022-11-08T17:08:58.103Z,101400.02
2022-11-08T17:11:30.395Z,101398.56
2022-11-08T17:14:03.351Z,101400.16
2022-11-08T17:16:35.628Z,101399.61
2022-11-08T17:19:07.992Z,101400.77
2022-11-08T17:21:45.031Z,101398.34
2022-11-08T17:24:22.143Z,101393.54
2022-11-08T17:26:54.548Z,101392.24
2022-11-08T17:29:26.981Z,101394.37
2022-11-08T17:31:59.324Z,101398.83
2022-11-08T17:34:31.654Z,101396.29
2022-11-08T17:37:03.946Z,101393.19
2022-11-08T17:39:36.197Z,101392.89
2022-11-08T17:42:08.580Z,101390.83
2022-11-08T17:44:40.895Z,101389.58
2022-11-08T17:47:13.142Z,101389.81
2022-11-08T17:49:45.578Z,101392.16
2022-11-08T17:52:17.982Z,101392.59
2022-11-08T17:54:53.069Z,101398.13
2022-11-08T17:57:25.594Z,101396.08
2022-11-08T17:59:58.448Z,101395.99
2022-11-08T18:02:30.858Z,101397.83
2022-11-08T18:05:03.095Z,101395.27
2022-11-08T18:07:35.920Z,101399.38
2022-11-08T18:10:10.048Z,101398.23
2022-11-08T18:12:42.356Z,101397.71
2022-11-08T18:15:14.954Z,101396.77
2022-11-08T18:17:47.135Z,101395.57
2022-11-08T18:20:19.525Z,101397.21
2022-11-08T18:22:51.881Z,101394.76
2022-11-08T18:25:24.078Z,101391.34
2022-11-08T18:27:56.437Z,101390.59
2022-11-08T18:30:28.870Z,101390.85
2022-11-08T18:33:01.272Z,101391.27
2022-11-08T18:35:36.496Z,101392.67
2022-11-08T18:38:08.717Z,101393.87
2022-11-08T18:40:41.257Z,101394.87
2022-11-08T18:43:13.483Z,101393.52
2022-11-08T18:45:45.901Z,101399.78
2022-11-08T18:48:18.134Z,101401.00
2022-11-08T18:50:53.618Z,101401.36
2022-11-08T18:53:26.082Z,101408.29
2022-11-08T18:55:58.470Z,101409.66
2022-11-08T18:58:31.000Z,101411.08
2022-11-08T19:01:03.821Z,101411.02
2022-11-08T19:03:36.353Z,101411.10
2022-11-08T19:06:09.590Z,101411.13
2022-11-08T19:08:41.869Z,101412.09
2022-11-08T19:11:15.358Z,101410.48
2022-11-08T19:13:47.848Z,101408.85
2022-11-08T19:16:22.107Z,101407.98
2022-11-08T19:18:54.539Z,101407.27
2022-11-08T19:21:28.733Z,101411.09
2022-11-08T19:24:08.709Z,101407.73
2022-11-08T19:26:41.043Z,101410.66
2022-11-08T19:29:14.261Z,101411.94
2022-11-08T19:31:46.647Z,101418.10
2022-11-08T19:34:19.235Z,101414.30
2022-11-08T19:36:55.703Z,101417.20
2022-11-08T19:39:28.794Z,101421.97
2022-11-08T19:42:01.183Z,101422.98
2022-11-08T19:44:33.460Z,101425.09
2022-11-08T19:47:05.768Z,101428.95
2022-11-08T19:49:38.251Z,101430.63
2022-11-08T19:52:10.841Z,101432.52
2022-11-08T19:54:43.312Z,101436.39
2022-11-08T19:57:15.571Z,101437.25
2022-11-08T19:59:47.837Z,101438.52
2022-11-08T20:02:20.118Z,101438.30
2022-11-08T20:04:52.485Z,101442.30
2022-11-08T20:07:24.803Z,101443.08
2022-11-08T20:09:58.930Z,101446.75
2022-11-08T20:12:33.951Z,101449.00
2022-11-08T20:15:08.012Z,101454.33
2022-11-08T20:17:40.282Z,101451.67
2022-11-08T20:20:13.755Z,101458.19
2022-11-08T20:22:48.221Z,101461.21
2022-11-08T20:25:20.870Z,101463.67
2022-11-08T20:27:53.415Z,101467.93
2022-11-08T20:30:25.758Z,101465.91
2022-11-08T20:32:58.174Z,101468.77
2022-11-08T20:35:30.498Z,101470.41
2022-11-08T20:38:02.941Z,101471.98
2022-11-08T20:40:35.235Z,101473.25
2022-11-08T20:43:07.575Z,101474.20
2022-11-08T20:45:43.893Z,101477.92
2022-11-08T20:48:16.441Z,101479.38
2022-11-08T20:50:49.374Z,101477.43
2022-11-08T20:53:21.640Z,101480.94
2022-11-08T20:55:59.959Z,101478.62
2022-11-08T20:58:34.068Z,101479.33
2022-11-08T21:01:08.435Z,101486.49
2022-11-08T21:03:40.861Z,101483.21
2022-11-08T21:06:15.242Z,101487.61
2022-11-08T21:08:58.989Z,101487.90
2022-11-08T21:11:33.100Z,101489.14
2022-11-08T21:14:06.129Z,101489.36
2022-11-08T21:16:59.744Z,101487.88
2022-11-08T21:19:32.353Z,101487.23
2022-11-08T21:22:16.930Z,101489.48
2022-11-08T21:24:50.262Z,101494.60
2022-11-08T21:27:27.067Z,101493.61
2022-11-08T21:30:01.863Z,101491.24
2022-11-08T21:32:34.431Z,101492.62
2022-11-08T21:35:07.900Z,101492.40
2022-11-08T21:37:40.450Z,101494.17
2022-11-08T21:40:14.353Z,101491.69
2022-11-08T21:42:48.941Z,101491.33
2022-11-08T21:45:21.841Z,101490.92
2022-11-08T21:47:55.339Z,101488.59
2022-11-08T21:50:28.693Z,101485.64
2022-11-08T21:53:01.578Z,101482.66
2022-11-08T21:55:35.324Z,101482.52
2022-11-08T21:58:07.903Z,101483.50
2022-11-08T22:00:41.144Z,101488.33
2022-11-08T22:03:14.932Z,101491.17
2022-11-08T22:05:48.150Z,101493.63
2022-11-08T22:08:20.982Z,101492.87
2022-11-08T22:10:53.626Z,101495.33
2022-11-08T22:13:26.089Z,101492.03
2022-11-08T22:15:58.522Z,101494.98
2022-11-08T22:18:58.294Z,101493.33
2022-11-08T22:21:43.360Z,101495.99
2022-11-08T22:24:20.310Z,101495.76
2022-11-08T22:26:54.006Z,101492.21
2022-11-08T22:29:26.506Z,101489.00
2022-11-08T22:31:59.114Z,101489.59
2022-11-08T22:34:31.647Z,101491.41
2022-11-08T22:37:04.093Z,101492.59
2022-11-08T22:39:36.635Z,101491.74
2022-11-08T22:42:09.240Z,101492.81
2022-11-08T22:44:41.752Z,101491.27
2022-11-08T22:47:14.355Z,101491.95
2022-11-08T22:49:46.871Z,101492.85
2022-11-08T22:52:19.303Z,101493.36
2022-11-08T22:54:51.804Z,101489.91
2022-11-08T22:57:24.286Z,101489.24
2022-11-08T22:59:56.743Z,101489.27
2022-11-08T23:02:32.910Z,101487.84
2022-11-08T23:05:05.980Z,101489.54
2022-11-08T23:07:38.340Z,101491.63
2022-11-08T23:10:12.141Z,101491.29
2022-11-08T23:13:02.126Z,101493.75
2022-11-08T23:16:05.277Z,101491.44
2022-11-08T23:18:37.626Z,101490.83
2022-11-08T23:21:27.504Z,101488.38
2022-11-08T23:24:17.248Z,101483.34
2022-11-08T23:27:07.036Z,101479.52
2022-11-08T23:29:56.995Z,101476.27
2022-11-08T23:32:29.385Z,101468.48
2022-11-08T23:35:01.773Z,101467.20
2022-11-08T23:37:34.070Z,101464.82
2022-11-08T23:40:25.156Z,101470.90
2022-11-08T23:43:28.669Z,101475.10
2022-11-08T23:46:06.284Z,101480.11
2022-11-08T23:48:39.200Z,101481.36
2022-11-08T23:51:11.742Z,101478.35
2022-11-08T23:53:44.134Z,101479.32
2022-11-08T23:56:23.533Z,101476.64
2022-11-08T23:58:57.548Z,101475.55
